Jack Guidry — WDF2422 — position and weather

sailwx.info

Track history (hours):
 
Tides and Currents Weather Stations Pressure Air Temp Water Temp Dewpoint Dewpoint Depression Visibility Wind Speed Wind Dir Waves Ship Positions

Jack Guidry

Owner: Enterprise Marine Services, LLC, San Antonio, TX. More information available from US FCC via Universal Licensing System and Coast Guard Vessel Documentation Center.

Last reported at 2017-Jan-21 12:33 UTC. Time now 2017-Jan-21 13:26 UTC.
Position N 30°08' W 093°19'.

Length 22 m; draft 3 m.

Type: Other ship. MMSI: 367003430.

Date/timePositionNaut miles runAvg speedWind from/ knotsBaromVisibWave heightAir tempDewpointWater temp
2017-Jan-21 12:33N 30°08' W 093°19'0 0.0
2017-Jan-21 11:33N 30°08' W 093°19'0 0.0
2017-Jan-21 10:33N 30°08' W 093°19'0 0.0
2017-Jan-21 09:33N 30°08' W 093°19'0 0.0
2017-Jan-21 08:33N 30°08' W 093°19'0 0.0
2017-Jan-21 07:33N 30°08' W 093°19'0 0.0
2017-Jan-21 06:33N 30°08' W 093°19'0 0.0
2017-Jan-21 05:33N 30°08' W 093°19'0 0.0
2017-Jan-21 04:33N 30°08' W 093°19'0 0.0
2017-Jan-21 03:33N 30°08' W 093°19'0 0.0
2017-Jan-21 02:33N 30°08' W 093°19'0 0.0
2017-Jan-21 01:33N 30°08' W 093°19'0 0.0
2017-Jan-21 00:33N 30°08' W 093°19'0 0.2
2017-Jan-20 23:33N 30°08' W 093°20'0 0.0
2017-Jan-20 22:33N 30°08' W 093°20'0 0.0
2017-Jan-20 21:33N 30°08' W 093°20'1 0.8
2017-Jan-20 20:33N 30°07' W 093°20'3 3.0
2017-Jan-20 19:33N 30°04' W 093°20'3 3.3
2017-Jan-20 18:33N 30°06' W 093°17'0 0.1
2017-Jan-20 17:33N 30°06' W 093°17'0 0.0
2017-Jan-20 16:33N 30°06' W 093°17'0 0.0
2017-Jan-20 15:33N 30°06' W 093°17'0 0.0
2017-Jan-20 14:33N 30°06' W 093°17'0 0.1
2017-Jan-20 13:33N 30°06' W 093°17'1 0.9
2017-Jan-20 12:33N 30°06' W 093°18'0 0.0
2017-Jan-20 11:33N 30°06' W 093°18'2 1.6
2017-Jan-20 10:33N 30°05' W 093°20'2 2.1
2017-Jan-20 09:33N 30°04' W 093°21'2 1.8
2017-Jan-20 08:33N 30°04' W 093°23'4 3.8
2017-Jan-20 07:33N 30°04' W 093°28'81 4.8
2017-Jan-19 14:31N 29°32' W 094°54'16 0.4
2017-Jan-17 20:03N 29°46' W 095°05'3 5.8
2017-Jan-17 19:33N 29°44' W 095°02'6 6.1
2017-Jan-17 18:32N 29°39' W 094°58'7 7.1
2017-Jan-17 17:33N 29°33' W 094°54'  
2017-Jan-13 20:21N 30°04' W 093°35'4 4.5
2017-Jan-13 19:33N 30°04' W 093°31'4 3.6
2017-Jan-13 18:33N 30°04' W 093°27'4 4.0
2017-Jan-13 17:33N 30°04' W 093°22'4 3.7
2017-Jan-13 16:33N 30°07' W 093°20'1 1.3
2017-Jan-13 15:33N 30°08' W 093°20'0 0.0
2017-Jan-13 14:33N 30°08' W 093°19'0 0.4
2017-Jan-13 13:33N 30°08' W 093°19'0 0.1
2017-Jan-13 12:33N 30°08' W 093°19'0 0.0
2017-Jan-13 11:33N 30°08' W 093°19'0 0.0
2017-Jan-13 10:33N 30°08' W 093°19'0 0.0
2017-Jan-13 09:33N 30°08' W 093°19'0 0.0
2017-Jan-13 08:33N 30°08' W 093°19'0 0.0
2017-Jan-13 07:33N 30°08' W 093°19'0 0.0
2017-Jan-13 06:33N 30°08' W 093°19'0 0.0
2017-Jan-13 05:33N 30°08' W 093°19'0 0.0
2017-Jan-13 04:33N 30°08' W 093°19'0 0.0
2017-Jan-13 03:33N 30°08' W 093°19'0 0.0
2017-Jan-13 02:33N 30°08' W 093°19'0 0.0
2017-Jan-13 01:33N 30°08' W 093°19'0 0.0
2017-Jan-13 00:33N 30°08' W 093°19'0 0.0
2017-Jan-12 23:33N 30°08' W 093°19'0 0.0
2017-Jan-12 22:33N 30°08' W 093°19'0 0.0
2017-Jan-12 21:33N 30°08' W 093°19'0 0.0
2017-Jan-12 20:33N 30°08' W 093°19'0 0.0
2017-Jan-12 19:33N 30°08' W 093°19'2 0.2
2017-Jan-12 08:33N 30°06' W 093°19'0 0.0
2017-Jan-12 07:33N 30°06' W 093°19'0 0.0
2017-Jan-12 06:33N 30°06' W 093°19'0 0.0
2017-Jan-12 05:33N 30°06' W 093°19'0 0.0
2017-Jan-12 04:33N 30°06' W 093°19'0 0.0
2017-Jan-12 03:33N 30°06' W 093°19'0 0.0
2017-Jan-12 02:33N 30°06' W 093°19'0 0.0
2017-Jan-12 01:33N 30°06' W 093°19'0 0.0
2017-Jan-12 00:33N 30°06' W 093°19'0 0.0
2017-Jan-11 23:33N 30°06' W 093°19'0 0.0
2017-Jan-11 22:33N 30°06' W 093°19'0 0.0
2017-Jan-11 21:33N 30°06' W 093°19'0 0.0
2017-Jan-11 20:33N 30°06' W 093°19'0 0.0
2017-Jan-11 19:33N 30°06' W 093°19'0 0.0
2017-Jan-11 18:33N 30°06' W 093°19'0 0.0
2017-Jan-11 17:33N 30°06' W 093°19'0 0.0
2017-Jan-11 16:33N 30°06' W 093°19'0 0.0
2017-Jan-11 15:33N 30°06' W 093°19'0 0.0
2017-Jan-11 14:33N 30°06' W 093°19'0 0.0
2017-Jan-11 13:33N 30°06' W 093°19'0 0.0
2017-Jan-11 12:33N 30°06' W 093°19'  
Track history (hours):
 
Tides and Currents Weather Stations Pressure Air Temp Water Temp Dewpoint Dewpoint Depression Visibility Wind Speed Wind Dir Waves Ship Positions

Jack Guidry

Owner: Enterprise Marine Services, LLC, San Antonio, TX. More information available from US FCC via Universal Licensing System and Coast Guard Vessel Documentation Center.

Last reported at 2017-Jan-21 12:33 UTC. Time now 2017-Jan-21 13:26 UTC.
Position N 30°08' W 093°19'.

Length 22 m; draft 3 m.

Type: Other ship. MMSI: 367003430.

Date/timePositionNaut miles runAvg speedWind from/ knotsBaromVisibWave heightAir tempDewpointWater temp
2017-Jan-21 12:33N 30°08' W 093°19'0 0.0
2017-Jan-21 11:33N 30°08' W 093°19'0 0.0
2017-Jan-21 10:33N 30°08' W 093°19'0 0.0
2017-Jan-21 09:33N 30°08' W 093°19'0 0.0
2017-Jan-21 08:33N 30°08' W 093°19'0 0.0
2017-Jan-21 07:33N 30°08' W 093°19'0 0.0
2017-Jan-21 06:33N 30°08' W 093°19'0 0.0
2017-Jan-21 05:33N 30°08' W 093°19'0 0.0
2017-Jan-21 04:33N 30°08' W 093°19'0 0.0
2017-Jan-21 03:33N 30°08' W 093°19'0 0.0
2017-Jan-21 02:33N 30°08' W 093°19'0 0.0
2017-Jan-21 01:33N 30°08' W 093°19'0 0.0
2017-Jan-21 00:33N 30°08' W 093°19'0 0.2
2017-Jan-20 23:33N 30°08' W 093°20'0 0.0
2017-Jan-20 22:33N 30°08' W 093°20'0 0.0
2017-Jan-20 21:33N 30°08' W 093°20'1 0.8
2017-Jan-20 20:33N 30°07' W 093°20'3 3.0
2017-Jan-20 19:33N 30°04' W 093°20'3 3.3
2017-Jan-20 18:33N 30°06' W 093°17'0 0.1
2017-Jan-20 17:33N 30°06' W 093°17'0 0.0
2017-Jan-20 16:33N 30°06' W 093°17'0 0.0
2017-Jan-20 15:33N 30°06' W 093°17'0 0.0
2017-Jan-20 14:33N 30°06' W 093°17'0 0.1
2017-Jan-20 13:33N 30°06' W 093°17'1 0.9
2017-Jan-20 12:33N 30°06' W 093°18'0 0.0
2017-Jan-20 11:33N 30°06' W 093°18'2 1.6
2017-Jan-20 10:33N 30°05' W 093°20'2 2.1
2017-Jan-20 09:33N 30°04' W 093°21'2 1.8
2017-Jan-20 08:33N 30°04' W 093°23'4 3.8
2017-Jan-20 07:33N 30°04' W 093°28'81 4.8
2017-Jan-19 14:31N 29°32' W 094°54'16 0.4
2017-Jan-17 20:03N 29°46' W 095°05'3 5.8
2017-Jan-17 19:33N 29°44' W 095°02'6 6.1
2017-Jan-17 18:32N 29°39' W 094°58'7 7.1
2017-Jan-17 17:33N 29°33' W 094°54'  
2017-Jan-13 20:21N 30°04' W 093°35'4 4.5
2017-Jan-13 19:33N 30°04' W 093°31'4 3.6
2017-Jan-13 18:33N 30°04' W 093°27'4 4.0
2017-Jan-13 17:33N 30°04' W 093°22'4 3.7
2017-Jan-13 16:33N 30°07' W 093°20'1 1.3
2017-Jan-13 15:33N 30°08' W 093°20'0 0.0
2017-Jan-13 14:33N 30°08' W 093°19'0 0.4
2017-Jan-13 13:33N 30°08' W 093°19'0 0.1
2017-Jan-13 12:33N 30°08' W 093°19'0 0.0
2017-Jan-13 11:33N 30°08' W 093°19'0 0.0
2017-Jan-13 10:33N 30°08' W 093°19'0 0.0
2017-Jan-13 09:33N 30°08' W 093°19'0 0.0
2017-Jan-13 08:33N 30°08' W 093°19'0 0.0
2017-Jan-13 07:33N 30°08' W 093°19'0 0.0
2017-Jan-13 06:33N 30°08' W 093°19'0 0.0
2017-Jan-13 05:33N 30°08' W 093°19'0 0.0
2017-Jan-13 04:33N 30°08' W 093°19'0 0.0
2017-Jan-13 03:33N 30°08' W 093°19'0 0.0
2017-Jan-13 02:33N 30°08' W 093°19'0 0.0
2017-Jan-13 01:33N 30°08' W 093°19'0 0.0
2017-Jan-13 00:33N 30°08' W 093°19'0 0.0
2017-Jan-12 23:33N 30°08' W 093°19'0 0.0
2017-Jan-12 22:33N 30°08' W 093°19'0 0.0
2017-Jan-12 21:33N 30°08' W 093°19'0 0.0
2017-Jan-12 20:33N 30°08' W 093°19'0 0.0
2017-Jan-12 19:33N 30°08' W 093°19'2 0.2
2017-Jan-12 08:33N 30°06' W 093°19'0 0.0
2017-Jan-12 07:33N 30°06' W 093°19'0 0.0
2017-Jan-12 06:33N 30°06' W 093°19'0 0.0
2017-Jan-12 05:33N 30°06' W 093°19'0 0.0
2017-Jan-12 04:33N 30°06' W 093°19'0 0.0
2017-Jan-12 03:33N 30°06' W 093°19'0 0.0
2017-Jan-12 02:33N 30°06' W 093°19'0 0.0
2017-Jan-12 01:33N 30°06' W 093°19'0 0.0
2017-Jan-12 00:33N 30°06' W 093°19'0 0.0
2017-Jan-11 23:33N 30°06' W 093°19'0 0.0
2017-Jan-11 22:33N 30°06' W 093°19'0 0.0
2017-Jan-11 21:33N 30°06' W 093°19'0 0.0
2017-Jan-11 20:33N 30°06' W 093°19'0 0.0
2017-Jan-11 19:33N 30°06' W 093°19'0 0.0
2017-Jan-11 18:33N 30°06' W 093°19'0 0.0
2017-Jan-11 17:33N 30°06' W 093°19'0 0.0
2017-Jan-11 16:33N 30°06' W 093°19'0 0.0
2017-Jan-11 15:33N 30°06' W 093°19'0 0.0
2017-Jan-11 14:33N 30°06' W 093°19'0 0.0
2017-Jan-11 13:33N 30°06' W 093°19'0 0.0
2017-Jan-11 12:33N 30°06' W 093°19'  

Dump ship's entire track history